This is the latest recevied weather packets stored in our database for station/object SP3ZBZ-13. If no packets are shown the sender has not sent any weather packets the latest 10 day(s).
| Time | Temp. | Humidity | Pressure | Rain* | Wind** | Luminosity | Snow |
|---|---|---|---|---|---|---|---|
| 1777924069 | 16.67° C | 69% | 1007.8 hPa | - | - | - | - |
| 1777923168 | 17.22° C | 68% | 1007.8 hPa | - | - | - | - |
| 1777922267 | 17.22° C | 67% | 1007.7 hPa | - | - | - | - |
| 1777921366 | 17.78° C | 66% | 1007.6 hPa | - | - | - | - |
| 1777920465 | 18.33° C | 63% | 1007.4 hPa | - | - | - | - |
| 1777919564 | 19.44° C | 60% | 1007.2 hPa | - | - | 1 W/m² | - |
| 1777917762 | 20.56° C | 56% | 1007 hPa | - | - | 15 W/m² | - |
| 1777916861 | 20.56° C | 54% | 1006.8 hPa | - | - | 24 W/m² | - |
| 1777915960 | 20.56° C | 55% | 1006.8 hPa | - | - | 26 W/m² | - |
| 1777915060 | 21.11° C | 54% | 1006.7 hPa | - | - | 45 W/m² | - |
| 1777914158 | 21.11° C | 55% | 1006.8 hPa | - | - | 63 W/m² | - |
| 1777913258 | 21.67° C | 53% | 1006.8 hPa | - | - | 70 W/m² | - |
| 1777912356 | 21.67° C | 52% | 1006.7 hPa | - | - | 115 W/m² | - |
| 1777911455 | 22.22° C | 51% | 1006.7 hPa | - | - | 159 W/m² | - |
| 1777910554 | 22.22° C | 52% | 1006.7 hPa | - | - | 115 W/m² | - |
| 1777909653 | 22.22° C | 51% | 1006.7 hPa | - | - | 135 W/m² | - |
| 1777908752 | 22.22° C | 50% | 1006.8 hPa | - | - | 185 W/m² | - |
| 1777907851 | 22.22° C | 50% | 1006.8 hPa | - | - | 213 W/m² | - |
| 1777906950 | 22.22° C | 51% | 1006.7 hPa | - | - | 142 W/m² | - |
| 1777906049 | 22.22° C | 49% | 1006.9 hPa | - | - | 348 W/m² | - |
| 1777905148 | 22.22° C | 50% | 1006.9 hPa | - | - | 228 W/m² | - |
| 1777904248 | 22.22° C | 50% | 1007 hPa | - | - | 458 W/m² | - |
| 1777903347 | 21.67° C | 50% | 1007.2 hPa | - | - | 480 W/m² | - |
| 1777902446 | 21.67° C | 51% | 1007.4 hPa | - | - | 328 W/m² | - |
| 1777901544 | 21.11° C | 49% | 1007.5 hPa | - | - | 285 W/m² | - |
* Rain since midnight (hover to see other rain measurements)
** Current wind speed in m/s (hover to see current wind gust speed)